Celebrity Century — 9HJI9 — position and weather

sailwx.info

Track history (hours):
 
Tides and Currents Weather Stations Pressure Air Temp Water Temp Dewpoint Dewpoint Depression Visibility Wind Speed Wind Dir Waves Ship Positions

Celebrity Century

Last reported at 2018-Oct-22 22:28 UTC. Time now 2018-Oct-22 22:33 UTC.
Position N 01°23' E 104°24'.

Length 251 m; draft 8 m.

Type: Ship. MMSI: 249054000.

Date/timePositionNaut miles runAvg speedWind from/ knotsBaromVisibWave heightAir tempDewpointWater temp
2018-Oct-22 22:28N 01°23' E 104°24'4 9.7
2018-Oct-22 22:03N 01°25' E 104°27'115.4
2018-Oct-22 21:59N 01°26' E 104°28'712.8
2018-Oct-22 21:27N 01°31' E 104°33'513.0
2018-Oct-22 21:03N 01°35' E 104°36'112.9
2018-Oct-22 20:59N 01°36' E 104°36'713.2
2018-Oct-22 20:28N 01°42' E 104°39'613.1
2018-Oct-22 20:02N 01°47' E 104°41'214.2
2018-Oct-22 19:52N 01°49' E 104°41'512.7
2018-Oct-22 19:28N 01°54' E 104°43'613.5
2018-Oct-22 19:02N 01°59' E 104°46'111.7
2018-Oct-22 18:58N 02°00' E 104°46'713.0
2018-Oct-22 18:27N 02°06' E 104°49'813.4
2018-Oct-22 17:52N 02°14' E 104°52'513.5
2018-Oct-22 17:30N 02°18' E 104°54'  
2018-Oct-18 11:13N 23°32' E 118°11'  
Track history (hours):
 
Tides and Currents Weather Stations Pressure Air Temp Water Temp Dewpoint Dewpoint Depression Visibility Wind Speed Wind Dir Waves Ship Positions

Celebrity Century

Last reported at 2018-Oct-22 22:28 UTC. Time now 2018-Oct-22 22:33 UTC.
Position N 01°23' E 104°24'.

Length 251 m; draft 8 m.

Type: Ship. MMSI: 249054000.

Date/timePositionNaut miles runAvg speedWind from/ knotsBaromVisibWave heightAir tempDewpointWater temp
2018-Oct-22 22:28N 01°23' E 104°24'4 9.7
2018-Oct-22 22:03N 01°25' E 104°27'115.4
2018-Oct-22 21:59N 01°26' E 104°28'712.8
2018-Oct-22 21:27N 01°31' E 104°33'513.0
2018-Oct-22 21:03N 01°35' E 104°36'112.9
2018-Oct-22 20:59N 01°36' E 104°36'713.2
2018-Oct-22 20:28N 01°42' E 104°39'613.1
2018-Oct-22 20:02N 01°47' E 104°41'214.2
2018-Oct-22 19:52N 01°49' E 104°41'512.7
2018-Oct-22 19:28N 01°54' E 104°43'613.5
2018-Oct-22 19:02N 01°59' E 104°46'111.7
2018-Oct-22 18:58N 02°00' E 104°46'713.0
2018-Oct-22 18:27N 02°06' E 104°49'813.4
2018-Oct-22 17:52N 02°14' E 104°52'513.5
2018-Oct-22 17:30N 02°18' E 104°54'  
2018-Oct-18 11:13N 23°32' E 118°11'  

Dump ship's entire track history